Kingston, Washington
Current Conditions -  °F | °C
As of 1:53 AM on Friday 24 Oct 2014 (Local Time) from KPAE Reporting Station
Overcast Overcast  
Wind Chill: 45°   Ceiling: 10000
Heat Index: 49°   Visibility: 10mi
Dew Point: 43°   Wind: 9mph
Humidity: 80%   Direction: 150°SSE
Pressure: 30.01"   Gusts: NA
Location:  47.8°N, 122.5°W
Report Text: KPAE 240853Z AUTO 15008KT 10SM FEW075 BKN100 OVC120 09/06 A3001 RMK AO2 SLP164 T00940061 51009
Loading
Personal Weather Stations






























Interactive Weather Map New forecast layout! Learn more

10-Day Weather Forecast

Advertisements
Track Severe Weather on mobile